createdAt,value
2023-05-02T00:00:28.557Z,995.26
2023-05-02T00:01:28.521Z,995.29
2023-05-02T00:02:28.588Z,995.28
2023-05-02T00:03:28.631Z,995.28
2023-05-02T00:04:28.543Z,995.23
2023-05-02T00:05:28.516Z,995.25
2023-05-02T00:06:28.527Z,995.28
2023-05-02T00:07:28.476Z,995.28
2023-05-02T00:08:28.466Z,995.29
2023-05-02T00:09:28.456Z,995.28
2023-05-02T00:10:28.497Z,995.29
2023-05-02T00:11:28.444Z,995.31
2023-05-02T00:12:28.440Z,995.26
2023-05-02T00:13:28.468Z,995.34
2023-05-02T00:14:28.420Z,995.33
2023-05-02T00:15:28.457Z,995.38
2023-05-02T00:16:28.427Z,995.40
2023-05-02T00:17:28.413Z,995.41
2023-05-02T00:18:28.415Z,995.39
2023-05-02T00:19:28.379Z,995.37
2023-05-02T00:20:28.400Z,995.37
2023-05-02T00:21:28.368Z,995.41
2023-05-02T00:22:28.360Z,995.36
2023-05-02T00:23:28.348Z,995.37
2023-05-02T00:24:28.342Z,995.34
2023-05-02T00:25:28.385Z,995.42
2023-05-02T00:26:29.485Z,995.37
2023-05-02T00:27:29.472Z,995.39
2023-05-02T00:28:29.483Z,995.37
2023-05-02T00:29:29.488Z,995.44
2023-05-02T00:30:29.518Z,995.40
2023-05-02T00:31:29.541Z,995.44
2023-05-02T00:32:29.502Z,995.36
2023-05-02T00:33:29.456Z,995.40
2023-05-02T00:34:29.624Z,995.34
2023-05-02T00:35:29.432Z,995.38
2023-05-02T00:36:29.418Z,995.41
2023-05-02T00:37:29.405Z,995.38
2023-05-02T00:38:29.399Z,995.43
2023-05-02T00:39:29.579Z,995.37
2023-05-02T00:40:29.379Z,995.36
2023-05-02T00:41:29.377Z,995.35
2023-05-02T00:42:29.366Z,995.34
2023-05-02T00:43:29.384Z,995.38
2023-05-02T00:44:29.356Z,995.38
2023-05-02T00:45:29.369Z,995.39
2023-05-02T00:46:29.380Z,995.38
2023-05-02T00:47:29.397Z,995.41
2023-05-02T00:48:29.321Z,995.37
2023-05-02T00:49:29.323Z,995.43
2023-05-02T00:50:29.326Z,995.43
2023-05-02T00:51:29.300Z,995.47
2023-05-02T00:52:29.365Z,995.41
2023-05-02T00:53:29.274Z,995.38
2023-05-02T00:54:29.273Z,995.39
2023-05-02T00:55:29.290Z,995.40
2023-05-02T00:56:29.274Z,995.35
2023-05-02T00:57:29.245Z,995.36
2023-05-02T00:58:29.253Z,995.39
2023-05-02T00:59:29.228Z,995.40
2023-05-02T01:00:29.265Z,995.42
2023-05-02T01:01:29.257Z,995.43
2023-05-02T01:02:29.281Z,995.38
2023-05-02T01:03:29.456Z,995.42
2023-05-02T01:04:29.213Z,995.34
2023-05-02T01:05:29.209Z,995.39
2023-05-02T01:06:30.059Z,995.33
2023-05-02T01:07:29.168Z,995.32
2023-05-02T01:08:29.171Z,995.38
2023-05-02T01:09:29.832Z,995.35
2023-05-02T01:10:29.177Z,995.41
2023-05-02T01:11:29.148Z,995.43
2023-05-02T01:12:29.158Z,995.36
2023-05-02T01:13:29.203Z,995.40
2023-05-02T01:14:29.123Z,995.39
2023-05-02T01:15:29.128Z,995.35
2023-05-02T01:16:29.149Z,995.44
2023-05-02T01:17:29.211Z,995.39
2023-05-02T01:18:29.094Z,995.43
2023-05-02T01:19:29.080Z,995.48
2023-05-02T01:20:29.106Z,995.44
2023-05-02T01:21:29.079Z,995.52
2023-05-02T01:22:29.053Z,995.49
2023-05-02T01:23:29.055Z,995.54
2023-05-02T01:24:29.038Z,995.51
2023-05-02T01:25:29.092Z,995.56
2023-05-02T01:26:29.052Z,995.50
2023-05-02T01:27:29.042Z,995.52
2023-05-02T01:28:29.012Z,995.48
2023-05-02T01:29:29.020Z,995.53
2023-05-02T01:30:29.026Z,995.58
2023-05-02T01:31:29.052Z,995.64
2023-05-02T01:32:29.018Z,995.59
2023-05-02T01:33:28.983Z,995.60
2023-05-02T01:34:28.958Z,995.58
2023-05-02T01:35:28.978Z,995.59
2023-05-02T01:36:28.950Z,995.68
2023-05-02T01:37:28.950Z,995.62
2023-05-02T01:38:28.936Z,995.72
2023-05-02T01:39:28.927Z,995.62
2023-05-02T01:40:28.948Z,995.69
2023-05-02T01:41:28.927Z,995.67
2023-05-02T01:42:28.910Z,995.61
2023-05-02T01:43:54.418Z,995.65
2023-05-02T01:44:28.896Z,995.71
2023-05-02T01:45:28.904Z,995.73
2023-05-02T01:46:29.933Z,995.73
2023-05-02T01:47:28.930Z,995.73
2023-05-02T01:48:28.858Z,995.77
2023-05-02T01:49:28.849Z,995.81
2023-05-02T01:50:28.899Z,995.83
2023-05-02T01:51:28.831Z,995.80
2023-05-02T01:52:28.837Z,995.81
2023-05-02T01:53:31.557Z,995.82
2023-05-02T01:54:28.803Z,995.83
2023-05-02T01:55:28.836Z,995.81
2023-05-02T01:56:28.796Z,995.85
2023-05-02T01:57:28.781Z,995.83
2023-05-02T01:58:28.780Z,995.82
2023-05-02T01:59:28.774Z,995.90
2023-05-02T02:00:28.966Z,995.90
2023-05-02T02:01:28.797Z,995.92
2023-05-02T02:02:29.808Z,995.87
2023-05-02T02:03:28.770Z,995.89
2023-05-02T02:04:28.822Z,995.87
2023-05-02T02:05:28.747Z,996.00
2023-05-02T02:06:28.732Z,995.91
2023-05-02T02:07:28.753Z,995.90
2023-05-02T02:08:28.734Z,995.90
2023-05-02T02:09:28.694Z,995.94
2023-05-02T02:10:28.893Z,995.93
2023-05-02T02:11:28.689Z,995.96
2023-05-02T02:12:28.682Z,995.91
2023-05-02T02:13:29.672Z,995.92
2023-05-02T02:14:28.664Z,995.89
2023-05-02T02:15:28.650Z,995.82
2023-05-02T02:16:28.742Z,995.96
2023-05-02T02:17:28.689Z,995.92
2023-05-02T02:18:28.620Z,995.90
2023-05-02T02:19:28.614Z,995.92
2023-05-02T02:20:28.605Z,995.90
2023-05-02T02:21:28.631Z,995.91
2023-05-02T02:22:28.595Z,995.91
2023-05-02T02:23:28.593Z,995.87
2023-05-02T02:24:28.580Z,995.93
2023-05-02T02:25:28.573Z,995.93
2023-05-02T02:26:28.592Z,995.93
2023-05-02T02:27:28.562Z,995.95
2023-05-02T02:28:28.553Z,995.94
2023-05-02T02:29:28.552Z,996.00
2023-05-02T02:30:28.558Z,996.01
2023-05-02T02:31:28.596Z,995.98
2023-05-02T02:32:28.591Z,995.94
2023-05-02T02:33:28.513Z,996.02
2023-05-02T02:34:28.501Z,996.06
2023-05-02T02:35:28.502Z,996.04
2023-05-02T02:36:28.526Z,996.09
2023-05-02T02:37:28.488Z,996.03
2023-05-02T02:38:28.477Z,996.07
2023-05-02T02:39:28.474Z,995.97
2023-05-02T02:40:28.455Z,996.05
2023-05-02T02:41:28.476Z,996.07
2023-05-02T02:42:28.448Z,996.08
2023-05-02T02:43:28.450Z,996.04
2023-05-02T02:44:28.437Z,996.06
2023-05-02T02:45:28.423Z,996.04
2023-05-02T02:46:28.518Z,996.02
2023-05-02T02:47:28.447Z,996.09
2023-05-02T02:48:28.394Z,996.06
2023-05-02T02:49:28.402Z,996.06
2023-05-02T02:50:29.400Z,996.03
2023-05-02T02:51:28.566Z,996.08
2023-05-02T02:52:28.387Z,996.12
2023-05-02T02:53:28.378Z,996.06
2023-05-02T02:54:28.358Z,996.06
2023-05-02T02:55:28.346Z,995.99
2023-05-02T02:56:28.377Z,996.05
2023-05-02T02:57:28.331Z,996.07
2023-05-02T02:58:28.330Z,996.03
2023-05-02T02:59:28.321Z,996.12
2023-05-02T03:00:28.334Z,996.13
2023-05-02T03:01:28.354Z,996.18
2023-05-02T03:02:28.401Z,996.32
2023-05-02T03:03:28.330Z,996.30
2023-05-02T03:04:29.274Z,996.22
2023-05-02T03:05:28.278Z,996.29
2023-05-02T03:06:28.294Z,996.21
2023-05-02T03:07:28.359Z,996.28
2023-05-02T03:08:28.245Z,996.25
2023-05-02T03:09:28.241Z,996.21
2023-05-02T03:10:28.228Z,996.23
2023-05-02T03:11:29.542Z,996.22
2023-05-02T03:12:28.234Z,996.26
2023-05-02T03:13:28.205Z,996.29
2023-05-02T03:14:28.242Z,996.28
2023-05-02T03:15:28.190Z,996.32
2023-05-02T03:16:28.229Z,996.34
2023-05-02T03:17:28.236Z,996.34
2023-05-02T03:18:28.163Z,996.36
2023-05-02T03:19:28.169Z,996.35
2023-05-02T03:20:28.154Z,996.43
2023-05-02T03:21:28.145Z,996.43
2023-05-02T03:22:28.158Z,996.43
2023-05-02T03:23:28.129Z,996.50
2023-05-02T03:24:28.120Z,996.45
2023-05-02T03:25:28.108Z,996.44
2023-05-02T03:26:29.120Z,996.48
2023-05-02T03:27:28.111Z,996.55
2023-05-02T03:28:28.081Z,996.45
2023-05-02T03:29:28.073Z,996.53
2023-05-02T03:30:28.090Z,996.57
2023-05-02T03:31:28.125Z,996.57
2023-05-02T03:32:28.144Z,996.64
2023-05-02T03:35:25.366Z,996.54
2023-05-02T03:36:25.359Z,996.49
2023-05-02T03:37:25.378Z,996.60
2023-05-02T03:38:25.344Z,996.60
2023-05-02T03:39:26.509Z,996.63
2023-05-02T03:40:26.488Z,996.65
2023-05-02T03:41:26.478Z,996.64
2023-05-02T03:42:26.512Z,996.60
2023-05-02T03:43:26.499Z,996.65
2023-05-02T03:44:26.459Z,996.60
2023-05-02T03:45:26.452Z,996.69
2023-05-02T03:46:26.515Z,996.70
2023-05-02T03:47:26.550Z,996.66
2023-05-02T03:48:26.461Z,996.71
2023-05-02T03:49:26.428Z,996.66
2023-05-02T03:50:26.415Z,996.66
2023-05-02T03:51:26.406Z,996.61
2023-05-02T03:52:26.428Z,996.70
2023-05-02T03:53:26.389Z,996.67
2023-05-02T03:54:26.390Z,996.76
2023-05-02T03:55:27.380Z,996.69
2023-05-02T03:56:26.377Z,996.73
2023-05-02T03:57:26.378Z,996.73
2023-05-02T03:58:26.357Z,996.73
2023-05-02T03:59:26.374Z,996.74
2023-05-02T04:00:26.345Z,996.72
2023-05-02T04:01:26.333Z,996.75
2023-05-02T04:02:26.435Z,996.79
2023-05-02T04:03:27.956Z,996.75
2023-05-02T04:04:26.334Z,996.74
2023-05-02T04:05:26.303Z,996.78
2023-05-02T04:06:26.322Z,996.76
2023-05-02T04:07:26.313Z,996.69
2023-05-02T04:08:26.273Z,996.80
2023-05-02T04:09:26.271Z,996.75
2023-05-02T04:10:26.262Z,996.78
2023-05-02T04:11:26.256Z,996.80
2023-05-02T04:12:26.270Z,996.81
2023-05-02T04:13:26.246Z,996.82
2023-05-02T04:14:26.265Z,996.83
2023-05-02T04:15:26.315Z,996.81
2023-05-02T04:16:26.221Z,996.85
2023-05-02T04:17:26.327Z,996.92
2023-05-02T04:18:26.207Z,996.85
2023-05-02T04:19:26.187Z,996.91
2023-05-02T04:20:26.199Z,996.96
2023-05-02T04:21:26.190Z,996.98
2023-05-02T04:22:50.333Z,996.97
2023-05-02T04:23:26.164Z,996.96
2023-05-02T04:24:26.156Z,997.00
2023-05-02T04:25:26.173Z,997.05
2023-05-02T04:26:26.134Z,997.14
2023-05-02T04:27:26.164Z,997.10
2023-05-02T04:28:26.131Z,997.05
2023-05-02T04:29:26.119Z,997.11
2023-05-02T04:30:26.100Z,997.18
2023-05-02T04:31:27.240Z,997.15
2023-05-02T04:32:26.126Z,997.12
2023-05-02T04:33:26.102Z,997.21
2023-05-02T04:34:26.071Z,997.25
2023-05-02T04:35:26.070Z,997.22
2023-05-02T04:36:26.075Z,997.25
2023-05-02T04:37:26.093Z,997.25
2023-05-02T04:38:26.049Z,997.27
2023-05-02T04:39:26.088Z,997.28
2023-05-02T04:40:26.034Z,997.39
2023-05-02T04:41:26.019Z,997.31
2023-05-02T04:42:26.049Z,997.40
2023-05-02T04:43:26.019Z,997.42
2023-05-02T04:44:26.040Z,997.46
2023-05-02T04:45:26.012Z,997.44
2023-05-02T04:46:26.041Z,997.46
2023-05-02T04:47:26.016Z,997.45
2023-05-02T04:48:25.971Z,997.53
2023-05-02T04:49:25.967Z,997.53
2023-05-02T04:50:25.952Z,997.53
2023-05-02T04:51:25.946Z,997.58
2023-05-02T04:52:25.995Z,997.63
2023-05-02T04:53:25.940Z,997.63
2023-05-02T04:54:25.954Z,997.67
2023-05-02T04:55:25.946Z,997.68
2023-05-02T04:56:26.400Z,997.75
2023-05-02T04:57:25.929Z,997.66
2023-05-02T04:58:25.891Z,997.69
2023-05-02T04:59:25.887Z,997.71
2023-05-02T05:00:25.878Z,997.75
2023-05-02T05:01:25.902Z,997.75
2023-05-02T05:02:26.013Z,997.78
2023-05-02T05:03:25.991Z,997.78
2023-05-02T05:04:25.850Z,997.74
2023-05-02T05:05:25.876Z,997.73
2023-05-02T05:06:25.875Z,997.74
2023-05-02T05:07:25.890Z,997.82
2023-05-02T05:08:25.837Z,997.81
2023-05-02T05:09:25.810Z,997.79
2023-05-02T05:10:25.810Z,997.76
2023-05-02T05:11:25.796Z,997.83
2023-05-02T05:12:25.854Z,997.81
2023-05-02T05:13:25.802Z,997.77
2023-05-02T05:14:25.766Z,997.73
2023-05-02T05:15:25.755Z,997.85
2023-05-02T05:16:25.864Z,997.80
2023-05-02T05:17:25.793Z,997.77
2023-05-02T05:18:25.774Z,997.88
2023-05-02T05:19:25.731Z,997.90
2023-05-02T05:20:25.721Z,997.85
2023-05-02T05:21:25.721Z,997.90
2023-05-02T05:22:25.701Z,997.96
2023-05-02T05:23:26.722Z,997.97
2023-05-02T05:24:25.699Z,997.95
2023-05-02T05:25:25.697Z,998.00
2023-05-02T05:26:25.682Z,998.01
2023-05-02T05:27:25.706Z,998.00
2023-05-02T05:28:25.689Z,998.05
2023-05-02T05:29:25.654Z,998.05
2023-05-02T05:30:25.697Z,998.01
2023-05-02T05:31:25.673Z,998.05
2023-05-02T05:32:25.669Z,998.09
2023-05-02T05:33:57.642Z,998.06
2023-05-02T05:34:25.611Z,998.09
2023-05-02T05:35:25.601Z,998.03
2023-05-02T05:36:25.633Z,998.12
2023-05-02T05:37:25.587Z,998.10
2023-05-02T05:38:25.639Z,998.06
2023-05-02T05:39:25.612Z,998.14
2023-05-02T05:40:25.594Z,998.16
2023-05-02T05:41:25.560Z,998.15
2023-05-02T05:42:25.555Z,998.15
2023-05-02T05:43:25.657Z,998.26
2023-05-02T05:44:25.537Z,998.19
2023-05-02T05:45:25.525Z,998.23
2023-05-02T05:46:25.588Z,998.23
2023-05-02T05:47:25.666Z,998.23
2023-05-02T05:48:25.573Z,998.25
2023-05-02T05:49:25.503Z,998.23
2023-05-02T05:50:25.498Z,998.22
2023-05-02T05:51:25.479Z,998.27
2023-05-02T05:52:25.487Z,998.27
2023-05-02T05:53:25.516Z,998.27
2023-05-02T05:54:25.467Z,998.30
2023-05-02T05:55:25.463Z,998.26
2023-05-02T05:56:25.454Z,998.31
2023-05-02T05:57:25.438Z,998.34
2023-05-02T05:58:25.472Z,998.34
2023-05-02T05:59:25.426Z,998.34
2023-05-02T06:00:25.415Z,998.30
2023-05-02T06:01:25.415Z,998.27
2023-05-02T06:02:25.459Z,998.23
2023-05-02T06:03:25.521Z,998.21
2023-05-02T06:04:25.452Z,998.28
2023-05-02T06:05:25.389Z,998.24
2023-05-02T06:06:25.435Z,998.26
2023-05-02T06:07:25.368Z,998.32
2023-05-02T06:08:25.548Z,998.32
2023-05-02T06:09:25.356Z,998.37
2023-05-02T06:10:25.343Z,998.42
2023-05-02T06:11:25.333Z,998.43
2023-05-02T06:12:25.330Z,998.32
2023-05-02T06:13:25.370Z,998.48
2023-05-02T06:14:25.355Z,998.41
2023-05-02T06:15:25.394Z,998.44
2023-05-02T06:16:25.369Z,998.42
2023-05-02T06:17:25.325Z,998.49
2023-05-02T06:18:25.280Z,998.41
2023-05-02T06:19:25.309Z,998.43
2023-05-02T06:20:25.271Z,998.47
2023-05-02T06:21:25.269Z,998.51
2023-05-02T06:22:25.261Z,998.55
2023-05-02T06:23:25.426Z,998.57
2023-05-02T06:24:25.235Z,998.47
2023-05-02T06:25:25.234Z,998.52
2023-05-02T06:26:25.221Z,998.51
2023-05-02T06:27:25.221Z,998.51
2023-05-02T06:28:25.203Z,998.57
2023-05-02T06:29:25.212Z,998.65
2023-05-02T06:30:25.201Z,998.59
2023-05-02T06:31:25.224Z,998.57
2023-05-02T06:32:25.267Z,998.72
2023-05-02T06:33:25.160Z,998.65
2023-05-02T06:34:25.172Z,998.63
2023-05-02T06:35:25.143Z,998.68
2023-05-02T06:36:25.138Z,998.70
2023-05-02T06:37:25.121Z,998.63
2023-05-02T06:38:25.124Z,998.69
2023-05-02T06:39:25.145Z,998.74
2023-05-02T06:40:25.104Z,998.78
2023-05-02T06:41:25.091Z,998.76
2023-05-02T06:42:25.083Z,998.78
2023-05-02T06:43:25.080Z,998.83
2023-05-02T06:44:25.106Z,998.79
2023-05-02T06:45:25.062Z,998.80
2023-05-02T06:46:25.124Z,998.80
2023-05-02T06:47:25.094Z,998.80
2023-05-02T06:48:25.041Z,998.86
2023-05-02T06:49:25.080Z,998.81
2023-05-02T06:50:25.046Z,998.79
2023-05-02T06:51:25.054Z,998.79
2023-05-02T06:52:25.010Z,998.81
2023-05-02T06:53:25.006Z,998.80
2023-05-02T06:54:25.019Z,998.84
2023-05-02T06:55:25.000Z,998.83
2023-05-02T06:56:24.980Z,998.80
2023-05-02T06:57:24.978Z,998.89
2023-05-02T06:58:24.968Z,998.91
2023-05-02T06:59:24.984Z,998.81
2023-05-02T07:00:24.945Z,998.87
2023-05-02T07:01:26.030Z,998.84
2023-05-02T07:02:24.961Z,998.89
2023-05-02T07:03:24.929Z,998.80
2023-05-02T07:04:25.220Z,998.86
2023-05-02T07:05:24.908Z,998.90
2023-05-02T07:06:25.016Z,998.88
2023-05-02T07:07:24.893Z,998.88
2023-05-02T07:08:24.899Z,998.89
2023-05-02T07:09:24.899Z,998.91
2023-05-02T07:10:24.864Z,998.95
2023-05-02T07:11:24.855Z,999.00
2023-05-02T07:12:24.877Z,998.97
2023-05-02T07:13:24.855Z,998.99
2023-05-02T07:14:24.863Z,999.01
2023-05-02T07:15:24.829Z,998.94
2023-05-02T07:16:24.887Z,998.99
2023-05-02T07:17:24.820Z,998.97
2023-05-02T07:18:24.813Z,998.96
2023-05-02T07:19:24.867Z,999.10
2023-05-02T07:20:24.918Z,998.99
2023-05-02T07:21:24.797Z,999.02
2023-05-02T07:22:24.787Z,999.04
2023-05-02T07:23:24.775Z,999.06
2023-05-02T07:24:24.796Z,999.05
2023-05-02T07:25:24.781Z,999.05
2023-05-02T07:26:24.752Z,999.11
2023-05-02T07:27:24.781Z,999.12
2023-05-02T07:28:24.729Z,999.16
2023-05-02T07:29:24.757Z,999.17
2023-05-02T07:30:24.842Z,999.17
2023-05-02T07:31:24.721Z,999.16
2023-05-02T07:32:24.767Z,999.20
2023-05-02T07:33:24.754Z,999.21
2023-05-02T07:34:24.751Z,999.17
2023-05-02T07:35:24.689Z,999.23
2023-05-02T07:36:24.681Z,999.15
2023-05-02T07:37:24.662Z,999.30
2023-05-02T07:38:24.680Z,999.27
2023-05-02T07:39:24.746Z,999.33
2023-05-02T07:40:24.716Z,999.27
2023-05-02T07:41:24.633Z,999.30
2023-05-02T07:42:24.629Z,999.39
2023-05-02T07:43:24.620Z,999.37
2023-05-02T07:44:24.648Z,999.45
2023-05-02T07:45:24.607Z,999.40
2023-05-02T07:46:24.609Z,999.44
2023-05-02T07:47:24.611Z,999.48
2023-05-02T07:48:26.195Z,999.52
2023-05-02T07:49:25.595Z,999.50
2023-05-02T07:50:24.634Z,999.53
2023-05-02T07:51:24.562Z,999.56
2023-05-02T07:52:24.555Z,999.61
2023-05-02T07:53:24.563Z,999.60
2023-05-02T07:54:24.573Z,999.60
2023-05-02T07:55:24.565Z,999.63
2023-05-02T07:56:24.523Z,999.70
2023-05-02T07:57:24.572Z,999.62
2023-05-02T07:58:24.502Z,999.59
2023-05-02T07:59:24.542Z,999.59
2023-05-02T08:00:24.599Z,999.66
2023-05-02T08:01:24.558Z,999.63
2023-05-02T08:02:24.579Z,999.65
2023-05-02T08:03:24.658Z,999.69
2023-05-02T08:04:24.541Z,999.71
2023-05-02T08:05:24.473Z,999.71
2023-05-02T08:06:24.488Z,999.71
2023-05-02T08:07:24.436Z,999.67
2023-05-02T08:08:24.436Z,999.65
2023-05-02T08:09:24.448Z,999.78
2023-05-02T08:10:24.421Z,999.83
2023-05-02T08:11:24.403Z,999.85
2023-05-02T08:12:24.398Z,999.81
2023-05-02T08:13:24.393Z,999.82
2023-05-02T08:14:24.424Z,999.82
2023-05-02T08:15:24.390Z,999.85
2023-05-02T08:16:24.437Z,999.83
2023-05-02T08:17:24.379Z,999.91
2023-05-02T08:18:24.354Z,999.90
2023-05-02T08:19:24.370Z,999.91
2023-05-02T08:20:24.348Z,999.97
2023-05-02T08:21:24.351Z,999.94
2023-05-02T08:22:24.323Z,999.92
2023-05-02T08:23:24.318Z,999.97
2023-05-02T08:24:24.330Z,999.94
2023-05-02T08:25:24.313Z,1000.00
2023-05-02T08:26:24.294Z,999.98
2023-05-02T08:27:24.290Z,1000.02
2023-05-02T08:28:24.281Z,1000.04
2023-05-02T08:29:24.298Z,999.95
2023-05-02T08:30:24.260Z,1000.00
2023-05-02T08:31:24.252Z,1000.05
2023-05-02T08:32:24.243Z,1000.02
2023-05-02T08:33:25.237Z,999.91
2023-05-02T08:34:24.292Z,999.91
2023-05-02T08:35:24.237Z,999.92
2023-05-02T08:36:24.225Z,1000.00
2023-05-02T08:37:24.209Z,999.91
2023-05-02T08:38:24.201Z,999.93
2023-05-02T08:39:24.212Z,999.95
2023-05-02T08:40:34.010Z,999.89
2023-05-02T08:41:26.185Z,999.87
2023-05-02T08:42:24.176Z,999.95
2023-05-02T08:43:24.173Z,999.92
2023-05-02T08:44:24.209Z,999.86
2023-05-02T08:45:24.144Z,999.89
2023-05-02T08:46:24.224Z,999.91
2023-05-02T08:47:24.213Z,999.87
2023-05-02T08:48:24.123Z,999.85
2023-05-02T08:49:24.138Z,999.86
2023-05-02T08:50:24.104Z,999.87
2023-05-02T08:51:24.102Z,999.86
2023-05-02T08:52:24.102Z,999.84
2023-05-02T08:53:24.103Z,999.94
2023-05-02T08:54:24.106Z,999.81
2023-05-02T08:55:24.071Z,999.94
2023-05-02T08:56:24.069Z,999.87
2023-05-02T08:57:24.062Z,999.92
2023-05-02T08:58:24.046Z,999.95
2023-05-02T08:59:24.086Z,1000.05
2023-05-02T09:00:24.037Z,1000.02
2023-05-02T09:01:24.099Z,1000.02
2023-05-02T09:02:24.051Z,1000.03
2023-05-02T09:03:24.049Z,1000.12
2023-05-02T09:04:24.085Z,1000.02
2023-05-02T09:05:23.988Z,1000.00
2023-05-02T09:06:24.034Z,1000.09
2023-05-02T09:07:23.988Z,1000.09
2023-05-02T09:08:23.977Z,1000.01
2023-05-02T09:09:24.005Z,1000.02
2023-05-02T09:10:23.962Z,1000.02
2023-05-02T09:11:23.952Z,1000.11
2023-05-02T09:12:23.934Z,1000.10
2023-05-02T09:13:23.932Z,1000.13
2023-05-02T09:14:23.965Z,1000.08
2023-05-02T09:15:23.935Z,1000.10
2023-05-02T09:16:24.034Z,1000.10
2023-05-02T09:17:23.897Z,1000.14
2023-05-02T09:18:23.916Z,1000.25
2023-05-02T09:19:23.914Z,1000.19
2023-05-02T09:20:23.896Z,1000.19
2023-05-02T09:21:23.891Z,1000.23
2023-05-02T09:22:23.867Z,1000.17
2023-05-02T09:23:23.864Z,1000.19
2023-05-02T09:24:23.888Z,1000.20
2023-05-02T09:25:23.841Z,1000.13
2023-05-02T09:26:23.838Z,1000.08
2023-05-02T09:27:23.887Z,1000.00
2023-05-02T09:28:23.888Z,1000.04
2023-05-02T09:29:23.870Z,1000.09
2023-05-02T09:30:23.816Z,1000.14
2023-05-02T09:32:24.783Z,1000.12
2023-05-02T09:33:23.782Z,1000.18
2023-05-02T09:34:23.810Z,1000.21
2023-05-02T09:35:23.811Z,1000.27
2023-05-02T09:36:23.776Z,1000.15
2023-05-02T09:37:23.748Z,1000.27
2023-05-02T09:38:23.738Z,1000.21
2023-05-02T09:39:25.548Z,1000.25
2023-05-02T09:40:24.782Z,1000.21
2023-05-02T09:41:23.719Z,1000.24
2023-05-02T09:42:23.708Z,1000.27
2023-05-02T09:43:23.701Z,1000.20
2023-05-02T09:44:23.721Z,1000.27
2023-05-02T09:45:23.689Z,1000.27
2023-05-02T09:46:23.689Z,1000.37
2023-05-02T09:47:23.699Z,1000.37
2023-05-02T09:48:23.675Z,1000.29
2023-05-02T09:49:23.701Z,1000.46
2023-05-02T09:50:23.640Z,1000.41
2023-05-02T09:51:23.640Z,1000.41
2023-05-02T09:52:23.642Z,1000.40
2023-05-02T09:53:23.615Z,1000.37
2023-05-02T09:54:23.650Z,1000.42
2023-05-02T09:55:23.606Z,1000.37
2023-05-02T09:56:24.883Z,1000.38
2023-05-02T09:57:23.585Z,1000.36
2023-05-02T09:58:23.584Z,1000.35
2023-05-02T09:59:23.582Z,1000.42
2023-05-02T10:00:23.595Z,1000.45
2023-05-02T10:01:23.576Z,1000.33
2023-05-02T10:02:23.611Z,1000.41
2023-05-02T10:03:23.589Z,1000.37
2023-05-02T10:04:23.766Z,1000.38
2023-05-02T10:05:23.555Z,1000.44
2023-05-02T10:06:23.558Z,1000.50
2023-05-02T10:07:23.520Z,1000.49
2023-05-02T10:08:23.505Z,1000.53
2023-05-02T10:09:23.500Z,1000.46
2023-05-02T10:10:23.514Z,1000.53
2023-05-02T10:11:23.494Z,1000.51
2023-05-02T10:12:23.477Z,1000.51
2023-05-02T10:13:23.471Z,1000.55
2023-05-02T10:14:23.461Z,1000.40
2023-05-02T10:15:23.508Z,1000.59
2023-05-02T10:16:23.528Z,1000.50
2023-05-02T10:17:23.438Z,1000.54
2023-05-02T10:18:23.473Z,1000.48
2023-05-02T10:19:23.434Z,1000.51
2023-05-02T10:20:23.452Z,1000.56
2023-05-02T10:21:23.399Z,1000.53
2023-05-02T10:22:23.403Z,1000.54
2023-05-02T10:23:23.389Z,1000.54
2023-05-02T10:24:23.391Z,1000.55
2023-05-02T10:25:23.398Z,1000.51
2023-05-02T10:26:23.363Z,1000.49
2023-05-02T10:27:23.411Z,1000.54
2023-05-02T10:28:23.369Z,1000.56
2023-05-02T10:29:23.341Z,1000.58
2023-05-02T10:30:23.358Z,1000.55
2023-05-02T10:31:23.349Z,1000.51
2023-05-02T10:32:23.351Z,1000.52
2023-05-02T10:33:23.312Z,1000.51
2023-05-02T10:34:23.350Z,1000.57
2023-05-02T10:35:23.359Z,1000.56
2023-05-02T10:36:23.291Z,1000.55
2023-05-02T10:37:23.284Z,1000.67
2023-05-02T10:38:24.788Z,1000.68
2023-05-02T10:39:23.257Z,1000.59
2023-05-02T10:40:23.291Z,1000.60
2023-05-02T10:41:23.253Z,1000.62
2023-05-02T10:42:23.232Z,1000.59
2023-05-02T10:43:23.227Z,1000.60
2023-05-02T10:44:23.216Z,1000.67
2023-05-02T10:45:23.242Z,1000.64
2023-05-02T10:46:23.239Z,1000.64
2023-05-02T10:47:23.284Z,1000.79
2023-05-02T10:48:23.181Z,1000.71
2023-05-02T10:49:23.173Z,1000.75
2023-05-02T10:50:23.205Z,1000.75
2023-05-02T10:51:23.146Z,1000.75
2023-05-02T10:52:24.158Z,1000.66
2023-05-02T10:53:23.163Z,1000.71
2023-05-02T10:54:23.150Z,1000.70
2023-05-02T10:55:23.155Z,1000.69
2023-05-02T10:56:23.120Z,1000.68
2023-05-02T10:57:23.135Z,1000.66
2023-05-02T10:58:23.102Z,1000.69
2023-05-02T10:59:24.098Z,1000.62
2023-05-02T11:00:23.129Z,1000.66
2023-05-02T11:01:23.113Z,1000.67
2023-05-02T11:02:23.179Z,1000.68
2023-05-02T11:03:23.091Z,1000.59
2023-05-02T11:04:23.062Z,1000.68
2023-05-02T11:05:23.107Z,1000.66
2023-05-02T11:06:23.054Z,1000.71
2023-05-02T11:07:23.042Z,1000.71
2023-05-02T11:08:23.462Z,1000.65
2023-05-02T11:09:24.021Z,1000.67
2023-05-02T11:10:23.045Z,1000.67
2023-05-02T11:11:23.038Z,1000.65
2023-05-02T11:12:22.998Z,1000.66
2023-05-02T11:13:22.986Z,1000.67
2023-05-02T11:14:22.981Z,1000.60
2023-05-02T11:15:23.174Z,1000.63
2023-05-02T11:16:23.024Z,1000.64
2023-05-02T11:17:22.976Z,1000.68
2023-05-02T11:18:22.956Z,1000.63
2023-05-02T11:19:22.942Z,1000.61
2023-05-02T11:20:22.942Z,1000.61
2023-05-02T11:21:22.957Z,1000.56
2023-05-02T11:22:22.925Z,1000.63
2023-05-02T11:23:22.947Z,1000.69
2023-05-02T11:24:22.912Z,1000.70
2023-05-02T11:25:22.998Z,1000.71
2023-05-02T11:26:22.892Z,1000.67
2023-05-02T11:27:22.889Z,1000.73
2023-05-02T11:28:22.882Z,1000.65
2023-05-02T11:29:22.885Z,1000.68
2023-05-02T11:30:22.894Z,1000.69
2023-05-02T11:31:22.938Z,1000.70
2023-05-02T11:32:23.077Z,1000.73
2023-05-02T11:33:22.921Z,1000.73
2023-05-02T11:34:55.446Z,1000.71
2023-05-02T11:35:22.863Z,1000.76
2023-05-02T11:36:22.811Z,1000.76
2023-05-02T11:37:22.804Z,1000.82
2023-05-02T11:38:22.799Z,1000.84
2023-05-02T11:39:22.811Z,1000.81
2023-05-02T11:40:22.814Z,1000.88
2023-05-02T11:41:22.776Z,1000.83
2023-05-02T11:42:22.774Z,1000.83
2023-05-02T11:43:22.836Z,1000.86
2023-05-02T11:44:22.751Z,1000.85
2023-05-02T11:45:22.773Z,1000.86
2023-05-02T11:46:22.868Z,1000.95
2023-05-02T11:47:22.748Z,1000.87
2023-05-02T11:48:22.732Z,1001.02
2023-05-02T11:49:22.719Z,1001.02
2023-05-02T11:50:22.732Z,1000.99
2023-05-02T11:51:22.728Z,1000.98
2023-05-02T11:52:22.702Z,1001.03
2023-05-02T11:53:22.695Z,1001.00
2023-05-02T11:54:22.686Z,1000.95
2023-05-02T11:55:22.706Z,1001.08
2023-05-02T11:56:22.664Z,1001.09
2023-05-02T11:57:22.657Z,1001.10
2023-05-02T11:58:22.678Z,1001.04
2023-05-02T11:59:22.664Z,1001.08
2023-05-02T12:00:22.669Z,1001.11
2023-05-02T12:01:22.630Z,1001.11
2023-05-02T12:02:22.707Z,1001.18
2023-05-02T12:03:22.863Z,1001.16
2023-05-02T12:04:22.635Z,1001.20
2023-05-02T12:05:22.670Z,1001.17
2023-05-02T12:06:22.735Z,1001.23
2023-05-02T12:07:22.595Z,1001.19
2023-05-02T12:08:22.585Z,1001.29
2023-05-02T12:09:22.592Z,1001.31
2023-05-02T12:10:22.591Z,1001.25
2023-05-02T12:11:22.563Z,1001.32
2023-05-02T12:12:22.558Z,1001.37
2023-05-02T12:13:22.548Z,1001.33
2023-05-02T12:14:22.550Z,1001.28
2023-05-02T12:15:22.566Z,1001.34
2023-05-02T12:16:22.554Z,1001.35
2023-05-02T12:17:22.569Z,1001.32
2023-05-02T12:18:22.546Z,1001.38
2023-05-02T12:19:22.527Z,1001.43
2023-05-02T12:20:22.527Z,1001.32
2023-05-02T12:21:22.521Z,1001.41
2023-05-02T12:22:22.487Z,1001.35
2023-05-02T12:23:22.476Z,1001.44
2023-05-02T12:24:22.504Z,1001.39